createdAt,value
2022-11-28T00:01:04.381Z,63.40
2022-11-28T00:03:31.054Z,60.87
2022-11-28T00:05:58.054Z,59.13
2022-11-28T00:08:24.643Z,61.43
2022-11-28T00:10:51.096Z,64.50
2022-11-28T00:13:17.615Z,59.80
2022-11-28T00:15:44.152Z,56.03
2022-11-28T00:18:11.473Z,53.00
2022-11-28T00:20:38.221Z,62.23
2022-11-28T00:23:04.694Z,55.07
2022-11-28T00:25:31.194Z,56.80
2022-11-28T00:27:57.690Z,62.30
2022-11-28T00:30:24.160Z,56.90
2022-11-28T00:32:50.778Z,53.17
2022-11-28T00:35:17.360Z,53.43
2022-11-28T00:37:43.829Z,58.60
2022-11-28T00:40:10.529Z,53.37
2022-11-28T00:42:37.035Z,49.97
2022-11-28T00:45:03.791Z,49.13
2022-11-28T00:47:30.283Z,54.63
2022-11-28T00:49:56.849Z,49.90
2022-11-28T00:52:23.414Z,53.37
2022-11-28T00:54:49.898Z,52.30
2022-11-28T00:57:16.476Z,52.33
2022-11-28T00:59:43.095Z,48.70
2022-11-28T01:02:09.720Z,51.60
2022-11-28T01:04:36.231Z,49.13
2022-11-28T01:07:02.708Z,52.27
2022-11-28T01:09:29.930Z,51.43
2022-11-28T01:11:56.660Z,51.20
2022-11-28T01:14:23.495Z,48.67
2022-11-28T01:16:50.065Z,51.07
2022-11-28T01:19:16.627Z,48.57
2022-11-28T01:21:43.114Z,53.87
2022-11-28T01:24:09.935Z,55.20
2022-11-28T01:26:37.559Z,50.40
2022-11-28T01:29:04.065Z,51.73
2022-11-28T01:31:30.724Z,51.87
2022-11-28T01:33:57.229Z,50.10
2022-11-28T01:36:23.817Z,50.93
2022-11-28T01:38:50.408Z,52.20
2022-11-28T01:41:17.552Z,53.93
2022-11-28T01:44:00.206Z,46.60
2022-11-28T01:46:26.873Z,53.23
2022-11-28T01:48:53.514Z,56.47
2022-11-28T01:51:20.005Z,47.63
2022-11-28T01:53:46.747Z,47.93
2022-11-28T01:56:15.004Z,47.30
2022-11-28T01:58:41.747Z,44.93
2022-11-28T02:01:08.315Z,44.37
2022-11-28T02:03:44.675Z,45.30
2022-11-28T02:06:11.392Z,46.13
2022-11-28T02:08:37.889Z,45.40
2022-11-28T02:11:12.463Z,47.53
2022-11-28T02:13:42.106Z,46.37
2022-11-28T02:16:08.655Z,47.80
2022-11-28T02:18:35.070Z,44.43
2022-11-28T02:21:13.898Z,40.70
2022-11-28T02:23:59.140Z,46.00
2022-11-28T02:26:28.658Z,43.97
2022-11-28T02:29:18.358Z,39.83
2022-11-28T02:31:54.012Z,40.83
2022-11-28T02:34:45.613Z,42.50
2022-11-28T02:37:33.696Z,38.27
2022-11-28T02:40:07.789Z,38.93
2022-11-28T02:42:53.341Z,42.47
2022-11-28T02:45:29.156Z,40.97
2022-11-28T02:47:58.702Z,40.10
2022-11-28T02:50:26.604Z,43.33
2022-11-28T02:52:56.688Z,44.90
2022-11-28T02:55:23.516Z,40.13
2022-11-28T02:57:50.620Z,39.07
2022-11-28T03:00:29.543Z,37.70
2022-11-28T03:03:10.574Z,43.97
2022-11-28T03:05:40.336Z,39.23
2022-11-28T03:08:14.249Z,44.53
2022-11-28T03:10:40.756Z,44.40
2022-11-28T03:13:26.119Z,42.90
2022-11-28T03:16:11.687Z,42.93
2022-11-28T03:18:45.634Z,41.43
2022-11-28T03:21:12.155Z,38.83
2022-11-28T03:23:57.962Z,44.53
2022-11-28T03:26:44.744Z,40.00
2022-11-28T03:29:30.010Z,42.30
2022-11-28T03:32:06.811Z,40.90
2022-11-28T03:34:34.500Z,41.90
2022-11-28T03:37:02.115Z,44.00
2022-11-28T03:39:30.161Z,43.83
2022-11-28T03:42:16.889Z,42.43
2022-11-28T03:44:45.422Z,46.10
2022-11-28T03:47:12.107Z,46.03
2022-11-28T03:49:39.779Z,47.87
2022-11-28T03:52:07.045Z,43.70
2022-11-28T03:54:52.360Z,46.57
2022-11-28T03:57:24.773Z,50.70
2022-11-28T03:59:51.868Z,51.37
2022-11-28T04:02:24.647Z,47.97
2022-11-28T04:04:52.758Z,45.00
2022-11-28T04:07:37.163Z,51.47
2022-11-28T04:10:15.939Z,50.57
2022-11-28T04:12:52.025Z,47.13
2022-11-28T04:15:26.086Z,48.17
2022-11-28T04:17:55.700Z,47.40
2022-11-28T04:20:35.971Z,48.90
2022-11-28T04:23:11.909Z,49.83
2022-11-28T04:25:39.214Z,46.17
2022-11-28T04:28:07.178Z,46.67
2022-11-28T04:30:33.616Z,44.63
2022-11-28T04:33:01.095Z,47.90
2022-11-28T04:35:31.635Z,45.37
2022-11-28T04:37:58.303Z,47.57
2022-11-28T04:40:24.777Z,43.80
2022-11-28T04:42:56.069Z,44.80
2022-11-28T04:45:24.761Z,44.47
2022-11-28T04:47:51.317Z,49.50
2022-11-28T04:50:17.816Z,46.80
2022-11-28T04:52:44.267Z,44.57
2022-11-28T04:55:19.838Z,44.90
2022-11-28T04:57:46.770Z,45.83
2022-11-28T05:00:14.246Z,42.37
2022-11-28T05:02:40.951Z,48.90
2022-11-28T05:05:11.691Z,46.37
2022-11-28T05:07:38.203Z,42.40
2022-11-28T05:10:05.415Z,45.57
2022-11-28T05:12:31.962Z,41.13
2022-11-28T05:14:58.425Z,49.17
2022-11-28T05:17:24.902Z,41.63
2022-11-28T05:19:51.370Z,43.03
2022-11-28T05:22:17.862Z,42.47
2022-11-28T05:24:44.500Z,44.93
2022-11-28T05:27:11.627Z,43.37
2022-11-28T05:29:38.069Z,45.70
2022-11-28T05:32:04.760Z,44.67
2022-11-28T05:34:31.287Z,44.43
2022-11-28T05:36:58.155Z,43.83
2022-11-28T05:39:24.689Z,46.43
2022-11-28T05:41:51.251Z,49.83
2022-11-28T05:44:19.101Z,40.90
2022-11-28T05:46:48.088Z,46.50
2022-11-28T05:49:14.544Z,42.37
2022-11-28T05:51:40.991Z,43.70
2022-11-28T05:54:07.521Z,48.57
2022-11-28T05:56:38.109Z,43.57
2022-11-28T05:59:07.662Z,43.63
2022-11-28T06:01:34.255Z,45.30
2022-11-28T06:04:01.267Z,42.67
2022-11-28T06:06:28.864Z,40.67
2022-11-28T06:08:55.383Z,49.47
2022-11-28T06:11:22.358Z,43.87
2022-11-28T06:13:48.933Z,46.37
2022-11-28T06:16:16.177Z,39.97
2022-11-28T06:18:42.759Z,43.83
2022-11-28T06:21:09.702Z,43.87
2022-11-28T06:23:36.198Z,40.37
2022-11-28T06:26:09.826Z,42.50
2022-11-28T06:28:36.293Z,42.33
2022-11-28T06:31:02.759Z,46.60
2022-11-28T06:33:29.253Z,43.97
2022-11-28T06:35:59.434Z,44.80
2022-11-28T06:38:25.943Z,43.37
2022-11-28T06:40:55.683Z,42.83
2022-11-28T06:43:22.134Z,46.67
2022-11-28T06:45:48.585Z,45.07
2022-11-28T06:48:15.071Z,44.83
2022-11-28T06:50:41.529Z,41.33
2022-11-28T06:53:08.003Z,43.47
2022-11-28T06:55:34.438Z,43.67
2022-11-28T06:58:00.931Z,45.40
2022-11-28T07:00:27.670Z,42.83
2022-11-28T07:02:54.151Z,41.07
2022-11-28T07:05:21.946Z,43.83
2022-11-28T07:07:54.146Z,44.13
2022-11-28T07:10:21.342Z,42.03
2022-11-28T07:12:47.773Z,41.90
2022-11-28T07:15:14.456Z,38.03
2022-11-28T07:17:40.915Z,38.97
2022-11-28T07:20:07.891Z,43.37
2022-11-28T07:22:34.328Z,42.77
2022-11-28T07:25:00.755Z,40.40
2022-11-28T07:27:27.221Z,40.83
2022-11-28T07:29:54.239Z,42.37
2022-11-28T07:32:20.794Z,42.10
2022-11-28T07:34:50.104Z,39.47
2022-11-28T07:37:16.973Z,41.33
2022-11-28T07:39:44.739Z,43.57
2022-11-28T07:42:11.819Z,38.80
2022-11-28T07:44:38.298Z,45.17
2022-11-28T07:47:05.031Z,46.57
2022-11-28T07:49:31.614Z,45.97
2022-11-28T07:51:58.300Z,43.13
2022-11-28T07:54:24.822Z,46.47
2022-11-28T07:59:37.870Z,41.23
2022-11-28T08:02:04.458Z,41.87
2022-11-28T08:04:30.990Z,48.13
2022-11-28T08:06:57.526Z,46.73
2022-11-28T08:09:24.009Z,39.83
2022-11-28T08:11:52.540Z,46.73
2022-11-28T08:14:19.028Z,41.53
2022-11-28T08:16:45.657Z,40.07
2022-11-28T08:19:12.202Z,43.30
2022-11-28T08:21:38.793Z,43.47
2022-11-28T08:24:05.523Z,43.70
2022-11-28T08:26:32.193Z,40.63
2022-11-28T08:28:59.146Z,46.43
2022-11-28T08:31:26.662Z,40.13
2022-11-28T08:33:53.803Z,42.53
2022-11-28T08:36:20.649Z,43.07
2022-11-28T08:39:02.896Z,42.43
2022-11-28T08:41:33.678Z,37.77
2022-11-28T08:44:00.118Z,41.53
2022-11-28T08:46:26.609Z,43.50
2022-11-28T08:48:53.266Z,41.00
2022-11-28T08:51:24.042Z,39.57
2022-11-28T08:53:54.958Z,44.13
2022-11-28T08:56:24.574Z,37.20
2022-11-28T08:58:50.995Z,39.47
2022-11-28T09:01:21.299Z,41.17
2022-11-28T09:03:47.928Z,39.97
2022-11-28T09:06:15.076Z,40.37
2022-11-28T09:08:41.584Z,38.37
2022-11-28T09:11:08.704Z,38.77
2022-11-28T09:13:35.428Z,39.63
2022-11-28T09:16:01.864Z,37.63
2022-11-28T09:18:28.322Z,38.57
2022-11-28T09:20:58.884Z,40.40
2022-11-28T09:23:25.312Z,40.70
2022-11-28T09:25:51.775Z,40.43
2022-11-28T09:28:18.274Z,38.37
2022-11-28T09:30:44.780Z,38.60
2022-11-28T09:33:13.339Z,41.97
2022-11-28T09:35:40.080Z,38.43
2022-11-28T09:38:06.591Z,37.87
2022-11-28T09:40:33.010Z,41.67
2022-11-28T09:43:00.896Z,39.87
2022-11-28T09:45:28.191Z,40.43
2022-11-28T09:48:13.480Z,37.13
2022-11-28T09:50:39.962Z,39.53
2022-11-28T09:53:09.418Z,37.80
2022-11-28T09:55:43.620Z,37.87
2022-11-28T09:58:13.268Z,33.93
2022-11-28T10:00:42.267Z,38.50
2022-11-28T10:03:12.989Z,35.80
2022-11-28T10:05:53.175Z,39.67
2022-11-28T10:08:25.338Z,38.73
2022-11-28T10:10:57.822Z,36.30
2022-11-28T10:14:06.735Z,36.40
2022-11-28T10:16:35.677Z,42.40
2022-11-28T10:19:03.822Z,35.77
2022-11-28T10:21:30.302Z,33.17
2022-11-28T10:23:57.960Z,38.43
2022-11-28T10:26:24.396Z,35.13
2022-11-28T10:28:52.033Z,36.10
2022-11-28T10:31:47.870Z,35.90
2022-11-28T10:34:22.284Z,31.07
2022-11-28T10:37:01.289Z,34.93
2022-11-28T10:39:27.750Z,36.87
2022-11-28T10:42:19.500Z,33.47
2022-11-28T10:44:55.391Z,32.00
2022-11-28T10:47:21.812Z,33.87
2022-11-28T10:49:59.053Z,32.17
2022-11-28T10:52:38.336Z,34.43
2022-11-28T10:55:04.781Z,34.50
2022-11-28T10:57:32.030Z,36.67
2022-11-28T10:59:58.511Z,32.10
2022-11-28T11:02:37.349Z,30.90
2022-11-28T11:05:04.493Z,30.70
2022-11-28T11:07:31.581Z,35.80
2022-11-28T11:10:16.802Z,30.80
2022-11-28T11:12:44.070Z,32.10
2022-11-28T11:15:16.691Z,30.07
2022-11-28T11:17:43.837Z,27.50
2022-11-28T11:20:25.567Z,26.30
2022-11-28T11:22:58.986Z,25.40
2022-11-28T11:25:26.125Z,22.13
2022-11-28T11:28:01.090Z,23.43
2022-11-28T11:30:34.489Z,26.73
2022-11-28T11:33:01.563Z,32.40
2022-11-28T11:35:28.857Z,24.47
2022-11-28T11:38:14.221Z,25.70
2022-11-28T11:40:40.694Z,21.63
2022-11-28T11:43:08.145Z,24.00
2022-11-28T11:45:34.934Z,24.33
2022-11-28T11:48:01.805Z,21.10
2022-11-28T11:50:29.774Z,25.70
2022-11-28T11:53:02.526Z,23.67
2022-11-28T11:55:29.674Z,25.20
2022-11-28T11:57:56.167Z,27.43
2022-11-28T12:00:23.794Z,28.13
2022-11-28T12:03:00.302Z,22.63
2022-11-28T12:05:41.754Z,24.90
2022-11-28T12:08:34.638Z,23.37
2022-11-28T12:11:21.372Z,24.40
2022-11-28T12:13:47.824Z,24.00
2022-11-28T12:16:29.549Z,21.83
2022-11-28T12:18:59.710Z,22.70
2022-11-28T12:21:32.629Z,24.23
2022-11-28T12:24:06.065Z,25.57
2022-11-28T12:26:32.515Z,26.77
2022-11-28T12:29:06.978Z,24.83
2022-11-28T12:31:46.377Z,23.03
2022-11-28T12:34:24.870Z,26.43
2022-11-28T12:36:51.416Z,24.37
2022-11-28T12:39:19.731Z,25.77
2022-11-28T12:41:52.342Z,24.83
2022-11-28T12:44:21.795Z,22.87
2022-11-28T12:50:28.945Z,23.77
2022-11-28T12:52:58.523Z,26.70
2022-11-28T12:55:31.286Z,25.47
2022-11-28T12:58:06.935Z,24.80
2022-11-28T13:00:33.657Z,25.83
2022-11-28T13:03:35.733Z,22.30
2022-11-28T13:06:08.124Z,24.07
2022-11-28T13:08:49.006Z,23.70
2022-11-28T13:11:34.913Z,26.17
2022-11-28T13:14:04.501Z,23.27
2022-11-28T13:16:41.800Z,25.53
2022-11-28T13:19:10.507Z,22.93
2022-11-28T13:21:43.049Z,24.33
2022-11-28T13:24:12.745Z,23.87
2022-11-28T13:26:42.088Z,23.43
2022-11-28T13:29:23.726Z,24.87
2022-11-28T13:31:51.290Z,21.73
2022-11-28T13:34:18.471Z,24.23
2022-11-28T13:39:54.090Z,25.83
2022-11-28T13:42:59.699Z,22.73
2022-11-28T13:45:19.011Z,24.43
2022-11-28T13:47:45.483Z,23.60
2022-11-28T13:50:30.476Z,24.80
2022-11-28T13:52:59.673Z,25.30
2022-11-28T13:55:45.190Z,26.03
2022-11-28T13:58:32.141Z,24.13
2022-11-28T14:01:20.535Z,27.57
2022-11-28T14:03:46.995Z,23.47
2022-11-28T14:06:14.776Z,27.10
2022-11-28T14:08:41.835Z,28.87
2022-11-28T14:11:28.570Z,26.13
2022-11-28T14:13:55.486Z,27.60
2022-11-28T14:16:25.603Z,24.37
2022-11-28T14:18:58.579Z,25.30
2022-11-28T14:21:43.899Z,22.80
2022-11-28T14:24:20.328Z,22.93
2022-11-28T14:26:46.912Z,25.47
2022-11-28T14:29:39.843Z,23.17
2022-11-28T14:32:28.864Z,22.37
2022-11-28T14:34:52.765Z,24.60
2022-11-28T14:37:19.234Z,21.13
2022-11-28T14:39:45.976Z,20.93
2022-11-28T14:42:25.440Z,22.10
2022-11-28T14:45:04.798Z,20.40
2022-11-28T14:47:35.133Z,22.60
2022-11-28T14:50:04.665Z,19.43
2022-11-28T14:52:39.437Z,23.07
2022-11-28T14:55:12.665Z,21.20
2022-11-28T14:57:51.269Z,22.43
2022-11-28T15:00:18.867Z,24.37
2022-11-28T15:02:52.977Z,20.13
2022-11-28T15:05:22.506Z,23.97
2022-11-28T15:07:54.460Z,23.60
2022-11-28T15:10:27.255Z,21.10
2022-11-28T15:12:53.790Z,20.60
2022-11-28T15:15:22.712Z,21.63
2022-11-28T15:17:51.543Z,23.40
2022-11-28T15:20:23.364Z,24.93
2022-11-28T15:22:49.831Z,24.50
2022-11-28T15:25:23.808Z,22.77
2022-11-28T15:27:50.808Z,27.57
2022-11-28T15:30:18.486Z,25.00
2022-11-28T15:32:44.950Z,25.80
2022-11-28T15:35:13.471Z,27.90
2022-11-28T15:37:39.968Z,22.80
2022-11-28T15:40:06.755Z,24.80
2022-11-28T15:42:33.896Z,25.20
2022-11-28T15:45:05.136Z,29.97
2022-11-28T15:47:31.981Z,28.63
2022-11-28T15:49:59.317Z,28.40
2022-11-28T15:52:25.766Z,27.27
2022-11-28T15:54:52.310Z,26.63
2022-11-28T15:57:19.762Z,25.37
2022-11-28T15:59:46.201Z,26.33
2022-11-28T16:02:26.645Z,22.60
2022-11-28T16:04:53.872Z,22.57
2022-11-28T16:07:20.530Z,27.03
2022-11-28T16:10:05.868Z,27.80
2022-11-28T16:12:32.327Z,31.17
2022-11-28T16:15:02.059Z,27.63
2022-11-28T16:17:29.727Z,27.27
2022-11-28T16:19:56.232Z,30.10
2022-11-28T16:22:22.808Z,31.03
2022-11-28T16:24:50.098Z,27.70
2022-11-28T16:27:25.242Z,29.73
2022-11-28T16:29:51.760Z,27.50
2022-11-28T16:32:32.236Z,29.43
2022-11-28T16:35:02.524Z,31.53
2022-11-28T16:37:29.551Z,27.13
2022-11-28T16:40:14.524Z,28.53
2022-11-28T16:42:41.048Z,31.63
2022-11-28T16:45:18.109Z,35.53
2022-11-28T16:47:44.670Z,36.23
2022-11-28T16:50:17.251Z,38.40
2022-11-28T16:52:45.780Z,36.77
2022-11-28T16:55:27.550Z,33.70
2022-11-28T16:58:07.556Z,39.33
2022-11-28T17:00:34.475Z,32.43
2022-11-28T17:03:00.977Z,28.93
2022-11-28T17:05:27.428Z,28.10
2022-11-28T17:07:54.006Z,26.87
2022-11-28T17:10:20.465Z,28.50
2022-11-28T17:12:46.921Z,29.40
2022-11-28T17:15:17.278Z,26.53
2022-11-28T17:17:43.895Z,26.40
2022-11-28T17:20:11.762Z,26.47
2022-11-28T17:22:45.778Z,28.27
2022-11-28T17:25:16.334Z,28.63
2022-11-28T17:27:42.895Z,27.13
2022-11-28T17:30:15.877Z,28.20
2022-11-28T17:32:42.337Z,26.37
2022-11-28T17:35:22.978Z,27.70
2022-11-28T17:37:49.524Z,27.60
2022-11-28T17:40:34.481Z,27.60
2022-11-28T17:43:03.594Z,31.30
2022-11-28T17:45:30.671Z,32.97
2022-11-28T17:47:57.224Z,31.10
2022-11-28T17:50:23.654Z,33.83
2022-11-28T17:52:50.118Z,32.40
2022-11-28T17:55:18.470Z,28.27
2022-11-28T17:57:44.989Z,29.23
2022-11-28T18:00:12.708Z,29.07
2022-11-28T18:02:39.227Z,30.20
2022-11-28T18:05:05.927Z,31.50
2022-11-28T18:07:32.457Z,31.00
2022-11-28T18:09:58.922Z,29.07
2022-11-28T18:12:25.353Z,30.03
2022-11-28T18:14:51.845Z,31.40
2022-11-28T18:17:18.304Z,33.43
2022-11-28T18:19:45.157Z,30.07
2022-11-28T18:22:12.166Z,31.40
2022-11-28T18:24:38.625Z,37.20
2022-11-28T18:27:05.161Z,34.17
2022-11-28T18:29:31.847Z,35.30
2022-11-28T18:31:58.392Z,33.70
2022-11-28T18:34:24.872Z,36.13
2022-11-28T18:36:52.892Z,37.87
2022-11-28T18:39:19.327Z,35.77
2022-11-28T18:41:45.946Z,35.33
2022-11-28T18:44:12.614Z,36.47
2022-11-28T18:46:39.140Z,39.40
2022-11-28T18:49:05.576Z,43.63
2022-11-28T18:51:32.855Z,43.67
2022-11-28T18:53:59.684Z,39.83
2022-11-28T18:56:26.475Z,44.80
2022-11-28T18:58:53.178Z,47.37
2022-11-28T19:01:28.693Z,51.10
2022-11-28T19:03:56.056Z,47.83
2022-11-28T19:06:22.720Z,49.73
2022-11-28T19:08:49.188Z,50.47
2022-11-28T19:11:16.364Z,46.03
2022-11-28T19:13:46.198Z,45.97
2022-11-28T19:16:14.285Z,42.00
2022-11-28T19:18:40.898Z,45.70
2022-11-28T19:21:07.843Z,49.03
2022-11-28T19:23:34.370Z,52.23
2022-11-28T19:26:02.048Z,50.23
2022-11-28T19:28:28.485Z,50.40
2022-11-28T19:30:55.289Z,51.83
2022-11-28T19:33:21.723Z,47.70
2022-11-28T19:35:48.204Z,45.07
2022-11-28T19:38:14.696Z,48.77
2022-11-28T19:40:41.383Z,46.07
2022-11-28T19:43:07.912Z,48.63
2022-11-28T19:45:34.429Z,52.13
2022-11-28T19:48:02.625Z,48.70
2022-11-28T19:50:29.054Z,46.40
2022-11-28T19:52:55.616Z,54.33
2022-11-28T19:55:22.090Z,43.40
2022-11-28T19:57:48.621Z,47.73
2022-11-28T20:00:15.478Z,48.77
2022-11-28T20:02:42.084Z,53.47
2022-11-28T20:05:08.875Z,50.60
2022-11-28T20:07:35.646Z,39.47
2022-11-28T20:10:02.370Z,48.03
2022-11-28T20:12:28.830Z,57.17
2022-11-28T20:14:55.395Z,51.63
2022-11-28T20:17:22.998Z,52.40
2022-11-28T20:19:49.529Z,51.83
2022-11-28T20:22:16.000Z,52.33
2022-11-28T20:24:42.514Z,54.20
2022-11-28T20:27:09.092Z,54.33
2022-11-28T20:29:35.630Z,44.63
2022-11-28T20:32:02.311Z,53.33
2022-11-28T20:34:28.932Z,46.13
2022-11-28T20:36:55.510Z,44.77
2022-11-28T20:39:22.200Z,53.73
2022-11-28T20:41:48.793Z,56.63
2022-11-28T20:44:15.338Z,49.37
2022-11-28T20:46:44.094Z,55.17
2022-11-28T20:49:16.452Z,54.90
2022-11-28T20:51:43.428Z,50.60
2022-11-28T20:54:10.098Z,49.07
2022-11-28T20:57:05.045Z,51.77
2022-11-28T20:59:26.034Z,55.60
2022-11-28T21:01:52.625Z,55.53
2022-11-28T21:04:19.230Z,54.73
2022-11-28T21:06:47.287Z,44.97
2022-11-28T21:09:13.835Z,52.43
2022-11-28T21:11:58.029Z,59.30
2022-11-28T21:14:25.523Z,59.77
2022-11-28T21:16:52.215Z,52.20
2022-11-28T21:19:18.880Z,52.30
2022-11-28T21:21:45.357Z,52.03
2022-11-28T21:24:12.368Z,59.40
2022-11-28T21:26:42.367Z,51.13
2022-11-28T21:29:11.888Z,50.57
2022-11-28T21:31:40.215Z,50.20
2022-11-28T21:34:06.889Z,49.60
2022-11-28T21:36:33.509Z,51.77
2022-11-28T21:39:00.725Z,53.50
2022-11-28T21:41:28.300Z,57.30
2022-11-28T21:43:54.960Z,54.40
2022-11-28T21:46:21.485Z,49.47
2022-11-28T21:48:48.085Z,52.10
2022-11-28T21:51:15.503Z,51.40
2022-11-28T21:53:41.966Z,58.47
2022-11-28T21:56:09.159Z,54.37
2022-11-28T21:58:35.659Z,49.47
2022-11-28T22:01:03.016Z,53.27
2022-11-28T22:03:29.747Z,57.00
2022-11-28T22:06:00.107Z,53.07
2022-11-28T22:08:26.609Z,58.07
2022-11-28T22:10:53.088Z,59.63
2022-11-28T22:13:20.038Z,58.27
2022-11-28T22:15:46.526Z,60.93
2022-11-28T22:18:13.063Z,61.37
2022-11-28T22:20:43.725Z,60.00
2022-11-28T22:23:11.533Z,59.43
2022-11-28T22:25:38.016Z,64.73
2022-11-28T22:28:04.583Z,58.33
2022-11-28T22:30:31.141Z,60.40
2022-11-28T22:32:57.734Z,61.33
2022-11-28T22:35:24.247Z,61.97
2022-11-28T22:37:52.792Z,60.57
2022-11-28T22:40:19.325Z,64.17
2022-11-28T22:42:45.805Z,62.70
2022-11-28T22:45:12.353Z,65.33
2022-11-28T22:47:38.803Z,63.00
2022-11-28T22:50:05.664Z,68.27
2022-11-28T22:52:32.162Z,66.17
2022-11-28T22:54:58.786Z,65.73
2022-11-28T22:57:25.295Z,70.83
2022-11-28T22:59:51.813Z,64.37
2022-11-28T23:02:18.420Z,73.10
2022-11-28T23:04:45.150Z,69.80
2022-11-28T23:07:11.862Z,63.47
2022-11-28T23:09:38.383Z,60.83
2022-11-28T23:12:05.040Z,63.83
2022-11-28T23:14:31.610Z,61.90
2022-11-28T23:16:58.322Z,63.50
2022-11-28T23:19:26.465Z,60.10
2022-11-28T23:21:52.956Z,68.50
2022-11-28T23:24:21.510Z,63.23
2022-11-28T23:26:48.217Z,61.10
2022-11-28T23:29:14.831Z,63.97
2022-11-28T23:31:42.009Z,61.87
2022-11-28T23:34:09.189Z,59.40
2022-11-28T23:36:41.858Z,60.30
2022-11-28T23:39:27.297Z,58.40
2022-11-28T23:41:53.780Z,63.83
2022-11-28T23:44:20.340Z,57.43
2022-11-28T23:46:47.018Z,57.07
2022-11-28T23:49:13.616Z,57.57
2022-11-28T23:51:40.676Z,60.03
2022-11-28T23:54:07.459Z,58.77
2022-11-28T23:56:34.444Z,57.53
2022-11-28T23:59:01.563Z,62.03
